createdAt,value
2019-01-02T00:05:33.780Z,18.7
2019-01-02T00:11:28.808Z,18.68
2019-01-02T00:17:23.799Z,18.79
2019-01-02T00:23:18.784Z,19.35
2019-01-02T00:29:13.796Z,18.28
2019-01-02T00:35:08.778Z,18.66
2019-01-02T00:41:03.788Z,19.15
2019-01-02T00:46:58.836Z,18.82
2019-01-02T00:52:53.834Z,20.41
2019-01-02T00:58:48.780Z,19.97
2019-01-02T01:04:43.813Z,19.28
2019-01-02T01:10:38.797Z,20.06
2019-01-02T01:16:33.817Z,19.32
2019-01-02T01:22:28.828Z,20.19
2019-01-02T01:28:23.807Z,18.81
2019-01-02T01:34:18.840Z,18.06
2019-01-02T01:40:13.827Z,17.43
2019-01-02T01:46:08.866Z,19.12
2019-01-02T01:52:03.876Z,17.73
2019-01-02T01:57:58.833Z,17.26
2019-01-02T02:03:53.846Z,17.62
2019-01-02T02:09:48.826Z,19.66
2019-01-02T02:15:43.855Z,17.57
2019-01-02T02:21:38.857Z,17.7
2019-01-02T02:27:33.859Z,18.02
2019-01-02T02:33:28.912Z,17.16
2019-01-02T02:39:23.850Z,17.87
2019-01-02T02:45:18.914Z,17.27
2019-01-02T02:51:13.911Z,17.2
2019-01-02T02:57:08.967Z,17.76
2019-01-02T03:03:03.870Z,17.9
2019-01-02T03:08:58.867Z,17.03
2019-01-02T03:14:53.906Z,17.16
2019-01-02T03:20:48.923Z,18.53
2019-01-02T03:26:43.895Z,17.4
2019-01-02T03:32:38.879Z,17
2019-01-02T03:38:33.911Z,16.66
2019-01-02T03:44:28.895Z,17.49
2019-01-02T03:50:23.890Z,16.34
2019-01-02T03:56:18.945Z,19
2019-01-02T04:02:13.905Z,16.98
2019-01-02T04:08:08.932Z,15.87
2019-01-02T04:14:03.918Z,17.16
2019-01-02T04:19:58.924Z,16.76
2019-01-02T04:25:53.939Z,17.82
2019-01-02T04:31:48.918Z,16.9
2019-01-02T04:37:43.970Z,14.69
2019-01-02T04:43:38.942Z,15.62
2019-01-02T04:49:33.926Z,18.29
2019-01-02T04:55:28.962Z,17.47
2019-01-02T05:01:23.980Z,17.66
2019-01-02T05:07:18.951Z,17.15
2019-01-02T05:13:13.924Z,18.84
2019-01-02T05:19:08.956Z,17.09
2019-01-02T05:25:03.944Z,17.16
2019-01-02T05:30:58.946Z,16.95
2019-01-02T05:36:53.967Z,14.98
2019-01-02T05:42:48.996Z,14.53
2019-01-02T05:48:43.948Z,15.21
2019-01-02T05:54:38.957Z,14.38
2019-01-02T06:00:39.652Z,14.58
2019-01-02T06:06:28.976Z,15.19
2019-01-02T06:12:23.991Z,14.44
2019-01-02T06:18:18.968Z,15.22
2019-01-02T06:24:13.965Z,14.57
2019-01-02T06:30:08.984Z,15
2019-01-02T06:36:04.001Z,14.22
2019-01-02T06:41:58.990Z,13.79
2019-01-02T06:47:54.003Z,14.55
2019-01-02T06:53:49.466Z,14.42
2019-01-02T06:59:43.992Z,15.04
2019-01-02T07:05:39.006Z,14.35
2019-01-02T07:11:34.008Z,14.76
2019-01-02T07:17:29.027Z,14.63
2019-01-02T07:23:24.056Z,16.17
2019-01-02T07:29:19.032Z,14.94
2019-01-02T07:35:14.078Z,17.51
2019-01-02T07:41:09.020Z,15.01
2019-01-02T07:47:04.049Z,15.14
2019-01-02T07:52:59.063Z,15.74
2019-01-02T07:58:54.071Z,15.02
2019-01-02T08:04:49.091Z,14.82
2019-01-02T08:10:44.053Z,15.68
2019-01-02T08:16:39.060Z,17.93
2019-01-02T08:22:34.105Z,17.95
2019-01-02T08:28:29.061Z,18.21
2019-01-02T08:34:24.063Z,16.91
2019-01-02T08:40:19.046Z,19.67
2019-01-02T08:46:14.060Z,16.16
2019-01-02T08:52:09.075Z,18.15
2019-01-02T08:58:04.068Z,17.02
2019-01-02T09:03:59.064Z,14.42
2019-01-02T09:09:54.081Z,16.57
2019-01-02T09:15:49.076Z,16.93
2019-01-02T09:21:44.088Z,12.92
2019-01-02T09:27:39.097Z,10.99
2019-01-02T09:33:34.071Z,12.35
2019-01-02T09:39:29.086Z,14.56
2019-01-02T09:45:24.153Z,14.1
2019-01-02T09:51:19.124Z,13.13
2019-01-02T09:57:14.141Z,13.53
2019-01-02T10:03:09.154Z,16.29
2019-01-02T10:09:04.114Z,15.46
2019-01-02T10:14:59.117Z,12.97
2019-01-02T10:20:54.118Z,12.02
2019-01-02T10:26:49.120Z,13.1
2019-01-02T10:32:44.170Z,12.83
2019-01-02T10:38:39.131Z,17.06
2019-01-02T10:44:34.193Z,14.4
2019-01-02T10:50:29.149Z,13.19
2019-01-02T10:56:24.160Z,13.85
2019-01-02T11:02:19.146Z,16.32
2019-01-02T11:08:14.145Z,10.92
2019-01-02T11:14:09.134Z,9.23
2019-01-02T11:20:04.148Z,24.99
2019-01-02T11:25:59.146Z,4.55
2019-01-02T11:31:54.144Z,4.15
2019-01-02T11:37:49.163Z,3
2019-01-02T11:43:44.166Z,3.31
2019-01-02T11:49:39.163Z,3.46
2019-01-02T11:55:34.190Z,3.52
2019-01-02T12:01:29.167Z,3.33
2019-01-02T12:07:24.193Z,3.92
2019-01-02T12:13:19.215Z,4.1
2019-01-02T12:19:14.207Z,3.43
2019-01-02T12:25:09.225Z,3.15
2019-01-02T12:31:04.251Z,2.83
2019-01-02T12:36:59.214Z,3.08
2019-01-02T12:42:54.288Z,3.65
2019-01-02T12:48:49.204Z,3.43
2019-01-02T12:54:44.199Z,3.72
2019-01-02T13:00:39.192Z,2.8
2019-01-02T13:06:34.254Z,2.98
2019-01-02T13:12:29.219Z,3.33
2019-01-02T13:18:24.209Z,3.33
2019-01-02T13:24:19.215Z,3.32
2019-01-02T13:30:14.247Z,3.87
2019-01-02T13:36:09.233Z,2.75
2019-01-02T13:42:04.208Z,2.45
2019-01-02T13:47:59.230Z,2.54
2019-01-02T13:53:54.240Z,2.47
2019-01-02T13:59:49.233Z,3.96
2019-01-02T14:05:44.287Z,2.22
2019-01-02T14:11:39.278Z,2.37
2019-01-02T14:17:34.242Z,2.16
2019-01-02T14:23:29.257Z,2.32
2019-01-02T14:29:24.251Z,1.64
2019-01-02T14:35:22.269Z,2.35
2019-01-02T14:41:14.277Z,1.92
2019-01-02T14:47:09.301Z,2.04
2019-01-02T14:53:04.284Z,1.88
2019-01-02T14:58:59.321Z,1.93
2019-01-02T15:04:54.265Z,2.04
2019-01-02T15:10:49.274Z,1.88
2019-01-02T15:16:44.595Z,2.24
2019-01-02T15:22:39.327Z,2.07
2019-01-02T15:28:34.295Z,2.85
2019-01-02T15:34:29.292Z,2.94
2019-01-02T15:40:24.282Z,2.84
2019-01-02T15:46:19.292Z,2.65
2019-01-02T15:52:14.289Z,2.93
2019-01-02T15:58:09.321Z,2.89
2019-01-02T16:04:04.345Z,3.68
2019-01-02T16:09:59.312Z,3.11
2019-01-02T16:15:54.334Z,4.1
2019-01-02T16:21:49.430Z,3.41
2019-01-02T16:27:44.310Z,3.14
2019-01-02T16:33:39.341Z,2.85
2019-01-02T16:39:34.340Z,3.57
2019-01-02T16:45:29.353Z,4.45
2019-01-02T16:51:24.377Z,3.17
2019-01-02T16:57:19.375Z,3.52
2019-01-02T17:03:14.403Z,3.04
2019-01-02T17:09:09.342Z,6.19
2019-01-02T17:15:04.355Z,4.64
2019-01-02T17:20:59.374Z,3.79
2019-01-02T17:26:54.406Z,3.37
2019-01-02T17:32:49.361Z,5.04
2019-01-02T17:38:44.402Z,4.36
2019-01-02T17:44:39.408Z,5.76
2019-01-02T17:50:34.378Z,11.7
2019-01-02T17:56:29.351Z,6.63
2019-01-02T18:02:24.431Z,3.07
2019-01-02T18:08:19.406Z,3.54
2019-01-02T18:14:14.417Z,2.9
2019-01-02T18:20:09.383Z,2.71
2019-01-02T18:26:04.409Z,2.77
2019-01-02T18:31:59.426Z,2.36
2019-01-02T18:37:54.396Z,2.53
2019-01-02T18:43:49.386Z,2.62
2019-01-02T18:49:44.417Z,2.37
2019-01-02T18:55:39.404Z,2.5
2019-01-02T19:01:34.411Z,2.45
2019-01-02T19:07:29.436Z,3.03
2019-01-02T19:13:24.425Z,7.32
2019-01-02T19:19:19.429Z,6.96
2019-01-02T19:25:14.434Z,6.48
2019-01-02T19:31:09.439Z,4.49
2019-01-02T19:37:04.427Z,6.01
2019-01-02T19:42:59.435Z,3.94
2019-01-02T19:48:54.457Z,4.03
2019-01-02T19:54:49.448Z,3.76
2019-01-02T20:00:44.442Z,4.34
2019-01-02T20:06:39.492Z,4.46
2019-01-02T20:12:34.472Z,6.45
2019-01-02T20:18:29.461Z,6.77
2019-01-02T20:24:24.451Z,6.84
2019-01-02T20:30:19.488Z,6.14
2019-01-02T20:36:14.462Z,6.07
2019-01-02T20:42:09.472Z,6.47
2019-01-02T20:48:04.463Z,6.26
2019-01-02T20:53:59.498Z,5.6
2019-01-02T20:59:54.503Z,5.16
2019-01-02T21:05:49.470Z,5.09
2019-01-02T21:11:44.499Z,5.41
2019-01-02T21:17:39.527Z,6.15
2019-01-02T21:23:34.479Z,8.43
2019-01-02T21:29:29.515Z,7.75
2019-01-02T21:35:24.507Z,8.73
2019-01-02T21:41:19.503Z,8.32
2019-01-02T21:47:14.526Z,8.13
2019-01-02T21:53:09.628Z,7.39
2019-01-02T21:59:04.542Z,11
2019-01-02T22:04:59.522Z,9.63
2019-01-02T22:10:54.516Z,8.23
2019-01-02T22:16:49.546Z,8.58
2019-01-02T22:22:44.534Z,8.77
2019-01-02T22:28:39.528Z,7.06
2019-01-02T22:34:34.578Z,7.08
2019-01-02T22:40:29.549Z,6.96
2019-01-02T22:46:24.559Z,6.8
2019-01-02T22:52:19.550Z,6.07
2019-01-02T22:58:14.545Z,7.61
2019-01-02T23:04:09.543Z,7.13
2019-01-02T23:10:04.546Z,7.88
2019-01-02T23:15:59.553Z,8.27
2019-01-02T23:21:54.569Z,8.81
2019-01-02T23:27:49.565Z,11.55
2019-01-02T23:33:44.577Z,9.73
2019-01-02T23:45:34.568Z,8.99
2019-01-02T23:45:34.607Z,9.94
2019-01-02T23:51:29.577Z,9.33
2019-01-02T23:57:24.586Z,8.81
